sensor_id;sensor_type;location;lat;lon;timestamp;temperature;humidity
20364;DHT22;10340;53.664;9.908;2022-11-13T00:00:49;5.20;99.90
20364;DHT22;10340;53.664;9.908;2022-11-13T00:03:16;5.20;99.90
20364;DHT22;10340;53.664;9.908;2022-11-13T00:05:43;5.10;99.90
20364;DHT22;10340;53.664;9.908;2022-11-13T00:08:11;5.20;99.90
20364;DHT22;10340;53.664;9.908;2022-11-13T00:10:38;5.20;99.90
20364;DHT22;10340;53.664;9.908;2022-11-13T00:13:05;5.20;99.90
20364;DHT22;10340;53.664;9.908;2022-11-13T00:15:32;5.10;99.90
20364;DHT22;10340;53.664;9.908;2022-11-13T00:18:01;5.10;99.90
20364;DHT22;10340;53.664;9.908;2022-11-13T00:20:28;5.10;99.90
20364;DHT22;10340;53.664;9.908;2022-11-13T00:22:55;5.00;99.90
20364;DHT22;10340;53.664;9.908;2022-11-13T00:25:22;5.10;99.90
20364;DHT22;10340;53.664;9.908;2022-11-13T00:27:49;5.00;99.90
20364;DHT22;10340;53.664;9.908;2022-11-13T00:30:16;4.90;99.90
20364;DHT22;10340;53.664;9.908;2022-11-13T00:32:43;5.00;99.90
20364;DHT22;10340;53.664;9.908;2022-11-13T00:35:12;5.00;99.90
20364;DHT22;10340;53.664;9.908;2022-11-13T00:37:39;5.00;99.90
20364;DHT22;10340;53.664;9.908;2022-11-13T00:40:07;5.00;99.90
20364;DHT22;10340;53.664;9.908;2022-11-13T00:42:34;5.00;99.90
20364;DHT22;10340;53.664;9.908;2022-11-13T00:45:01;5.00;99.90
20364;DHT22;10340;53.664;9.908;2022-11-13T00:47:28;5.00;99.90
20364;DHT22;10340;53.664;9.908;2022-11-13T00:49:55;5.00;99.90
20364;DHT22;10340;53.664;9.908;2022-11-13T00:52:23;5.00;99.90
20364;DHT22;10340;53.664;9.908;2022-11-13T00:54:50;5.00;99.90
20364;DHT22;10340;53.664;9.908;2022-11-13T00:57:17;5.00;99.90
20364;DHT22;10340;53.664;9.908;2022-11-13T00:59:44;4.90;99.90
20364;DHT22;10340;53.664;9.908;2022-11-13T01:02:11;4.90;99.90
20364;DHT22;10340;53.664;9.908;2022-11-13T01:04:39;4.90;99.90
20364;DHT22;10340;53.664;9.908;2022-11-13T01:07:07;4.90;99.90
20364;DHT22;10340;53.664;9.908;2022-11-13T01:09:35;4.80;99.90
20364;DHT22;10340;53.664;9.908;2022-11-13T01:12:04;4.90;99.90
20364;DHT22;10340;53.664;9.908;2022-11-13T01:14:31;4.80;99.90
20364;DHT22;10340;53.664;9.908;2022-11-13T01:16:58;4.70;99.90
20364;DHT22;10340;53.664;9.908;2022-11-13T01:19:25;4.70;99.90
20364;DHT22;10340;53.664;9.908;2022-11-13T01:21:52;4.70;99.90
20364;DHT22;10340;53.664;9.908;2022-11-13T01:24:19;4.60;99.90
20364;DHT22;10340;53.664;9.908;2022-11-13T01:26:47;4.60;99.90
20364;DHT22;10340;53.664;9.908;2022-11-13T01:29:14;4.60;99.90
20364;DHT22;10340;53.664;9.908;2022-11-13T01:31:41;4.50;99.90
20364;DHT22;10340;53.664;9.908;2022-11-13T01:34:08;4.50;99.90
20364;DHT22;10340;53.664;9.908;2022-11-13T01:36:35;4.50;99.90
20364;DHT22;10340;53.664;9.908;2022-11-13T01:39:02;4.40;99.90
20364;DHT22;10340;53.664;9.908;2022-11-13T01:41:31;4.40;99.90
20364;DHT22;10340;53.664;9.908;2022-11-13T01:44:00;4.40;99.90
20364;DHT22;10340;53.664;9.908;2022-11-13T01:46:29;4.40;99.90
20364;DHT22;10340;53.664;9.908;2022-11-13T01:49:02;4.30;99.90
20364;DHT22;10340;53.664;9.908;2022-11-13T01:51:32;4.30;99.90
20364;DHT22;10340;53.664;9.908;2022-11-13T01:54:02;4.20;99.90
20364;DHT22;10340;53.664;9.908;2022-11-13T01:56:30;4.20;99.90
20364;DHT22;10340;53.664;9.908;2022-11-13T01:59:03;4.20;99.90
20364;DHT22;10340;53.664;9.908;2022-11-13T02:01:32;4.20;99.90
20364;DHT22;10340;53.664;9.908;2022-11-13T02:03:59;4.20;99.90
20364;DHT22;10340;53.664;9.908;2022-11-13T02:06:29;4.20;99.90
20364;DHT22;10340;53.664;9.908;2022-11-13T02:08:58;4.20;99.90
20364;DHT22;10340;53.664;9.908;2022-11-13T02:11:25;4.20;99.90
20364;DHT22;10340;53.664;9.908;2022-11-13T02:13:52;4.20;99.90
20364;DHT22;10340;53.664;9.908;2022-11-13T02:16:21;4.20;99.90
20364;DHT22;10340;53.664;9.908;2022-11-13T02:18:49;4.20;99.90
20364;DHT22;10340;53.664;9.908;2022-11-13T02:21:26;4.20;99.90
20364;DHT22;10340;53.664;9.908;2022-11-13T02:24:01;4.20;99.90
20364;DHT22;10340;53.664;9.908;2022-11-13T02:26:32;4.20;99.90
20364;DHT22;10340;53.664;9.908;2022-11-13T02:28:59;4.20;99.90
20364;DHT22;10340;53.664;9.908;2022-11-13T02:31:26;4.20;99.90
20364;DHT22;10340;53.664;9.908;2022-11-13T02:36:22;4.30;99.90
20364;DHT22;10340;53.664;9.908;2022-11-13T02:38:51;4.20;99.90
20364;DHT22;10340;53.664;9.908;2022-11-13T02:41:18;4.30;99.90
20364;DHT22;10340;53.664;9.908;2022-11-13T02:43:46;4.30;99.90
20364;DHT22;10340;53.664;9.908;2022-11-13T02:46:13;4.30;99.90
20364;DHT22;10340;53.664;9.908;2022-11-13T02:48:40;4.30;99.90
20364;DHT22;10340;53.664;9.908;2022-11-13T02:51:07;4.30;99.90
20364;DHT22;10340;53.664;9.908;2022-11-13T02:53:34;4.30;99.90
20364;DHT22;10340;53.664;9.908;2022-11-13T02:56:01;4.40;99.90
20364;DHT22;10340;53.664;9.908;2022-11-13T02:58:28;4.40;99.90
20364;DHT22;10340;53.664;9.908;2022-11-13T03:00:57;4.40;99.90
20364;DHT22;10340;53.664;9.908;2022-11-13T03:03:26;4.30;99.90
20364;DHT22;10340;53.664;9.908;2022-11-13T03:05:53;4.40;99.90
20364;DHT22;10340;53.664;9.908;2022-11-13T03:08:20;4.40;99.90
20364;DHT22;10340;53.664;9.908;2022-11-13T03:10:49;4.50;99.90
20364;DHT22;10340;53.664;9.908;2022-11-13T03:15:43;4.50;99.90
20364;DHT22;10340;53.664;9.908;2022-11-13T03:18:12;4.50;99.90
20364;DHT22;10340;53.664;9.908;2022-11-13T03:20:40;4.50;99.90
20364;DHT22;10340;53.664;9.908;2022-11-13T03:23:07;4.50;99.90
20364;DHT22;10340;53.664;9.908;2022-11-13T03:25:34;4.50;99.90
20364;DHT22;10340;53.664;9.908;2022-11-13T03:28:01;4.60;99.90
20364;DHT22;10340;53.664;9.908;2022-11-13T03:30:28;4.60;99.90
20364;DHT22;10340;53.664;9.908;2022-11-13T03:32:56;4.60;99.90
20364;DHT22;10340;53.664;9.908;2022-11-13T03:35:25;4.60;99.90
20364;DHT22;10340;53.664;9.908;2022-11-13T03:37:51;4.60;99.90
20364;DHT22;10340;53.664;9.908;2022-11-13T03:40:18;4.70;99.90
20364;DHT22;10340;53.664;9.908;2022-11-13T03:42:45;4.70;99.90
20364;DHT22;10340;53.664;9.908;2022-11-13T03:45:12;4.70;99.90
20364;DHT22;10340;53.664;9.908;2022-11-13T03:47:39;4.60;99.90
20364;DHT22;10340;53.664;9.908;2022-11-13T03:50:07;4.60;99.90
20364;DHT22;10340;53.664;9.908;2022-11-13T03:52:35;4.60;99.90
20364;DHT22;10340;53.664;9.908;2022-11-13T03:55:02;4.60;99.90
20364;DHT22;10340;53.664;9.908;2022-11-13T03:57:29;4.60;99.90
20364;DHT22;10340;53.664;9.908;2022-11-13T03:59:56;4.60;99.90
20364;DHT22;10340;53.664;9.908;2022-11-13T04:02:23;4.50;99.90
20364;DHT22;10340;53.664;9.908;2022-11-13T04:04:50;4.50;99.90
20364;DHT22;10340;53.664;9.908;2022-11-13T04:07:17;4.50;99.90
20364;DHT22;10340;53.664;9.908;2022-11-13T04:09:45;4.50;99.90
20364;DHT22;10340;53.664;9.908;2022-11-13T04:12:12;4.60;99.90
20364;DHT22;10340;53.664;9.908;2022-11-13T04:14:39;4.50;99.90
20364;DHT22;10340;53.664;9.908;2022-11-13T04:17:06;4.50;99.90
20364;DHT22;10340;53.664;9.908;2022-11-13T04:19:33;4.50;99.90
20364;DHT22;10340;53.664;9.908;2022-11-13T04:22:00;4.50;99.90
20364;DHT22;10340;53.664;9.908;2022-11-13T04:24:27;4.50;99.90
20364;DHT22;10340;53.664;9.908;2022-11-13T04:26:55;4.40;99.90
20364;DHT22;10340;53.664;9.908;2022-11-13T04:29:22;4.40;99.90
20364;DHT22;10340;53.664;9.908;2022-11-13T04:31:49;4.40;99.90
20364;DHT22;10340;53.664;9.908;2022-11-13T04:34:16;5.30;99.90
20364;DHT22;10340;53.664;9.908;2022-11-13T04:36:43;4.40;99.90
20364;DHT22;10340;53.664;9.908;2022-11-13T04:39:10;4.30;99.90
20364;DHT22;10340;53.664;9.908;2022-11-13T04:41:37;4.30;99.90
20364;DHT22;10340;53.664;9.908;2022-11-13T04:44:22;4.20;99.90
20364;DHT22;10340;53.664;9.908;2022-11-13T04:46:49;4.20;99.90
20364;DHT22;10340;53.664;9.908;2022-11-13T04:49:16;4.20;99.90
20364;DHT22;10340;53.664;9.908;2022-11-13T04:51:43;4.20;99.90
20364;DHT22;10340;53.664;9.908;2022-11-13T04:54:10;4.10;99.90
20364;DHT22;10340;53.664;9.908;2022-11-13T04:56:37;4.10;99.90
20364;DHT22;10340;53.664;9.908;2022-11-13T04:59:04;4.10;99.90
20364;DHT22;10340;53.664;9.908;2022-11-13T05:01:34;4.10;99.90
20364;DHT22;10340;53.664;9.908;2022-11-13T05:04:01;4.10;99.90
20364;DHT22;10340;53.664;9.908;2022-11-13T05:06:28;4.50;99.90
20364;DHT22;10340;53.664;9.908;2022-11-13T05:08:55;4.00;99.90
20364;DHT22;10340;53.664;9.908;2022-11-13T05:11:22;4.00;99.90
20364;DHT22;10340;53.664;9.908;2022-11-13T05:13:50;4.10;99.90
20364;DHT22;10340;53.664;9.908;2022-11-13T05:16:17;4.00;99.90
20364;DHT22;10340;53.664;9.908;2022-11-13T05:18:45;4.10;99.90
20364;DHT22;10340;53.664;9.908;2022-11-13T05:21:12;4.00;99.90
20364;DHT22;10340;53.664;9.908;2022-11-13T05:23:39;4.10;99.90
20364;DHT22;10340;53.664;9.908;2022-11-13T05:26:08;4.00;99.90
20364;DHT22;10340;53.664;9.908;2022-11-13T05:28:36;4.00;99.90
20364;DHT22;10340;53.664;9.908;2022-11-13T05:31:04;4.00;99.90
20364;DHT22;10340;53.664;9.908;2022-11-13T05:33:31;4.00;99.90
20364;DHT22;10340;53.664;9.908;2022-11-13T05:36:04;4.00;99.90
20364;DHT22;10340;53.664;9.908;2022-11-13T05:38:31;4.00;99.90
20364;DHT22;10340;53.664;9.908;2022-11-13T05:41:03;3.80;99.90
20364;DHT22;10340;53.664;9.908;2022-11-13T05:43:30;4.00;99.90
20364;DHT22;10340;53.664;9.908;2022-11-13T05:46:01;4.10;99.90
20364;DHT22;10340;53.664;9.908;2022-11-13T05:48:29;4.10;99.90
20364;DHT22;10340;53.664;9.908;2022-11-13T05:51:00;4.10;99.90
20364;DHT22;10340;53.664;9.908;2022-11-13T05:53:29;4.10;99.90
20364;DHT22;10340;53.664;9.908;2022-11-13T05:55:59;4.10;99.90
20364;DHT22;10340;53.664;9.908;2022-11-13T05:58:27;4.10;99.90
20364;DHT22;10340;53.664;9.908;2022-11-13T06:01:04;4.10;99.90
20364;DHT22;10340;53.664;9.908;2022-11-13T06:03:31;4.10;99.90
20364;DHT22;10340;53.664;9.908;2022-11-13T06:05:59;4.20;99.90
20364;DHT22;10340;53.664;9.908;2022-11-13T06:08:26;4.20;99.90
20364;DHT22;10340;53.664;9.908;2022-11-13T06:10:59;4.30;99.90
20364;DHT22;10340;53.664;9.908;2022-11-13T06:13:27;4.30;99.90
20364;DHT22;10340;53.664;9.908;2022-11-13T06:15:58;4.30;99.90
20364;DHT22;10340;53.664;9.908;2022-11-13T06:18:25;4.30;99.90
20364;DHT22;10340;53.664;9.908;2022-11-13T06:20:52;4.40;99.90
20364;DHT22;10340;53.664;9.908;2022-11-13T06:23:19;4.40;99.90
20364;DHT22;10340;53.664;9.908;2022-11-13T06:25:46;4.40;99.90
20364;DHT22;10340;53.664;9.908;2022-11-13T06:28:15;4.40;99.90
20364;DHT22;10340;53.664;9.908;2022-11-13T06:30:42;4.40;99.90
20364;DHT22;10340;53.664;9.908;2022-11-13T06:33:09;4.40;99.90
20364;DHT22;10340;53.664;9.908;2022-11-13T06:35:36;3.30;99.90
20364;DHT22;10340;53.664;9.908;2022-11-13T06:38:03;4.40;99.90
20364;DHT22;10340;53.664;9.908;2022-11-13T06:40:30;4.40;99.90
20364;DHT22;10340;53.664;9.908;2022-11-13T06:42:56;4.40;99.90
20364;DHT22;10340;53.664;9.908;2022-11-13T06:45:25;4.40;99.90
20364;DHT22;10340;53.664;9.908;2022-11-13T06:47:53;4.40;99.90
20364;DHT22;10340;53.664;9.908;2022-11-13T06:50:20;4.40;99.90
20364;DHT22;10340;53.664;9.908;2022-11-13T06:52:47;4.40;99.90
20364;DHT22;10340;53.664;9.908;2022-11-13T06:55:14;4.50;99.90
20364;DHT22;10340;53.664;9.908;2022-11-13T06:57:41;4.50;99.90
20364;DHT22;10340;53.664;9.908;2022-11-13T07:00:09;4.50;99.90
20364;DHT22;10340;53.664;9.908;2022-11-13T07:02:38;4.60;99.90
20364;DHT22;10340;53.664;9.908;2022-11-13T07:05:05;4.60;99.90
20364;DHT22;10340;53.664;9.908;2022-11-13T07:07:32;4.60;99.90
20364;DHT22;10340;53.664;9.908;2022-11-13T07:09:59;4.60;99.90
20364;DHT22;10340;53.664;9.908;2022-11-13T07:12:27;4.60;99.90
20364;DHT22;10340;53.664;9.908;2022-11-13T07:14:54;4.60;99.90
20364;DHT22;10340;53.664;9.908;2022-11-13T07:17:21;4.60;99.90
20364;DHT22;10340;53.664;9.908;2022-11-13T07:19:49;4.70;99.90
20364;DHT22;10340;53.664;9.908;2022-11-13T07:22:16;4.80;99.90
20364;DHT22;10340;53.664;9.908;2022-11-13T07:24:43;4.80;99.90
20364;DHT22;10340;53.664;9.908;2022-11-13T07:27:10;4.80;99.90
20364;DHT22;10340;53.664;9.908;2022-11-13T07:29:37;4.80;99.90
20364;DHT22;10340;53.664;9.908;2022-11-13T07:32:04;4.90;99.90
20364;DHT22;10340;53.664;9.908;2022-11-13T07:34:31;4.90;99.90
20364;DHT22;10340;53.664;9.908;2022-11-13T07:37:00;4.90;99.90
20364;DHT22;10340;53.664;9.908;2022-11-13T07:39:27;5.00;99.90
20364;DHT22;10340;53.664;9.908;2022-11-13T07:41:54;5.00;99.90
20364;DHT22;10340;53.664;9.908;2022-11-13T07:44:21;5.10;99.90
20364;DHT22;10340;53.664;9.908;2022-11-13T07:46:48;5.20;99.90
20364;DHT22;10340;53.664;9.908;2022-11-13T07:49:15;5.20;99.90
20364;DHT22;10340;53.664;9.908;2022-11-13T07:54:11;5.30;99.90
20364;DHT22;10340;53.664;9.908;2022-11-13T07:56:38;5.40;99.90
20364;DHT22;10340;53.664;9.908;2022-11-13T07:59:05;5.40;99.90
20364;DHT22;10340;53.664;9.908;2022-11-13T08:01:32;5.50;99.90
20364;DHT22;10340;53.664;9.908;2022-11-13T08:03:59;5.50;99.90
20364;DHT22;10340;53.664;9.908;2022-11-13T08:06:25;5.50;99.90
20364;DHT22;10340;53.664;9.908;2022-11-13T08:08:53;5.60;99.90
20364;DHT22;10340;53.664;9.908;2022-11-13T08:11:21;5.70;99.90
20364;DHT22;10340;53.664;9.908;2022-11-13T08:13:48;5.70;99.90
20364;DHT22;10340;53.664;9.908;2022-11-13T08:16:15;5.80;99.90
20364;DHT22;10340;53.664;9.908;2022-11-13T08:18:42;6.00;99.90
20364;DHT22;10340;53.664;9.908;2022-11-13T08:21:09;5.90;99.90
20364;DHT22;10340;53.664;9.908;2022-11-13T08:23:36;5.90;99.90
20364;DHT22;10340;53.664;9.908;2022-11-13T08:26:04;6.10;99.90
20364;DHT22;10340;53.664;9.908;2022-11-13T08:28:33;6.20;99.90
20364;DHT22;10340;53.664;9.908;2022-11-13T08:31:01;6.20;99.90
20364;DHT22;10340;53.664;9.908;2022-11-13T08:33:28;6.20;99.90
20364;DHT22;10340;53.664;9.908;2022-11-13T08:35:57;6.40;99.90
20364;DHT22;10340;53.664;9.908;2022-11-13T08:38:25;6.40;99.90
20364;DHT22;10340;53.664;9.908;2022-11-13T08:40:56;6.50;99.90
20364;DHT22;10340;53.664;9.908;2022-11-13T08:43:23;6.50;99.90
20364;DHT22;10340;53.664;9.908;2022-11-13T08:48:21;6.60;99.90
20364;DHT22;10340;53.664;9.908;2022-11-13T08:50:50;6.70;99.90
20364;DHT22;10340;53.664;9.908;2022-11-13T08:53:17;6.70;99.90
20364;DHT22;10340;53.664;9.908;2022-11-13T08:55:44;6.70;99.90
20364;DHT22;10340;53.664;9.908;2022-11-13T08:58:12;6.80;99.90
20364;DHT22;10340;53.664;9.908;2022-11-13T09:00:39;6.90;99.90
20364;DHT22;10340;53.664;9.908;2022-11-13T09:03:08;6.90;99.90
20364;DHT22;10340;53.664;9.908;2022-11-13T09:05:37;6.90;99.90
20364;DHT22;10340;53.664;9.908;2022-11-13T09:08:04;7.10;99.90
20364;DHT22;10340;53.664;9.908;2022-11-13T09:10:31;7.10;99.90
20364;DHT22;10340;53.664;9.908;2022-11-13T09:13:00;7.20;99.90
20364;DHT22;10340;53.664;9.908;2022-11-13T09:15:27;7.20;99.90
20364;DHT22;10340;53.664;9.908;2022-11-13T09:17:56;7.20;99.90
20364;DHT22;10340;53.664;9.908;2022-11-13T09:20:24;7.30;99.90
20364;DHT22;10340;53.664;9.908;2022-11-13T09:22:58;7.30;99.90
20364;DHT22;10340;53.664;9.908;2022-11-13T09:25:26;7.40;99.90
20364;DHT22;10340;53.664;9.908;2022-11-13T09:27:54;7.40;99.90
20364;DHT22;10340;53.664;9.908;2022-11-13T09:30:21;7.50;99.90
20364;DHT22;10340;53.664;9.908;2022-11-13T09:32:52;7.50;99.90
20364;DHT22;10340;53.664;9.908;2022-11-13T09:35:19;7.50;99.90
20364;DHT22;10340;53.664;9.908;2022-11-13T09:38:00;7.50;99.90
20364;DHT22;10340;53.664;9.908;2022-11-13T09:40:34;7.50;99.90
20364;DHT22;10340;53.664;9.908;2022-11-13T09:43:02;7.50;99.90
20364;DHT22;10340;53.664;9.908;2022-11-13T09:45:31;7.60;99.90
20364;DHT22;10340;53.664;9.908;2022-11-13T09:48:09;7.60;99.90
20364;DHT22;10340;53.664;9.908;2022-11-13T09:50:38;7.60;99.90
20364;DHT22;10340;53.664;9.908;2022-11-13T09:53:09;7.60;99.90
20364;DHT22;10340;53.664;9.908;2022-11-13T09:55:44;7.60;99.90
20364;DHT22;10340;53.664;9.908;2022-11-13T09:58:21;7.60;99.90
20364;DHT22;10340;53.664;9.908;2022-11-13T10:00:49;7.60;99.90
20364;DHT22;10340;53.664;9.908;2022-11-13T10:03:24;7.70;99.90
20364;DHT22;10340;53.664;9.908;2022-11-13T10:06:02;7.80;99.90
20364;DHT22;10340;53.664;9.908;2022-11-13T10:08:46;7.80;99.90
20364;DHT22;10340;53.664;9.908;2022-11-13T10:11:23;7.90;99.90
20364;DHT22;10340;53.664;9.908;2022-11-13T10:13:58;7.80;99.90
20364;DHT22;10340;53.664;9.908;2022-11-13T10:16:31;7.90;99.90
20364;DHT22;10340;53.664;9.908;2022-11-13T10:19:05;7.90;99.90
20364;DHT22;10340;53.664;9.908;2022-11-13T10:21:40;7.90;99.90
20364;DHT22;10340;53.664;9.908;2022-11-13T10:24:16;7.90;99.90
20364;DHT22;10340;53.664;9.908;2022-11-13T10:26:44;8.00;99.90
20364;DHT22;10340;53.664;9.908;2022-11-13T10:29:13;8.00;99.90
20364;DHT22;10340;53.664;9.908;2022-11-13T10:31:43;8.00;99.90
20364;DHT22;10340;53.664;9.908;2022-11-13T10:34:11;8.10;99.90
20364;DHT22;10340;53.664;9.908;2022-11-13T10:36:45;8.10;99.90
20364;DHT22;10340;53.664;9.908;2022-11-13T10:39:16;8.10;99.90
20364;DHT22;10340;53.664;9.908;2022-11-13T10:41:47;8.10;99.90
20364;DHT22;10340;53.664;9.908;2022-11-13T10:44:28;8.00;99.90
20364;DHT22;10340;53.664;9.908;2022-11-13T10:47:07;8.00;99.90
20364;DHT22;10340;53.664;9.908;2022-11-13T10:49:39;8.00;99.90
20364;DHT22;10340;53.664;9.908;2022-11-13T10:52:16;8.00;99.90
20364;DHT22;10340;53.664;9.908;2022-11-13T10:54:45;8.00;99.90
20364;DHT22;10340;53.664;9.908;2022-11-13T10:57:23;8.00;99.90
20364;DHT22;10340;53.664;9.908;2022-11-13T10:59:51;8.00;99.90
20364;DHT22;10340;53.664;9.908;2022-11-13T11:02:20;8.00;99.90
20364;DHT22;10340;53.664;9.908;2022-11-13T11:04:47;7.90;99.90
20364;DHT22;10340;53.664;9.908;2022-11-13T11:07:16;8.00;99.90
20364;DHT22;10340;53.664;9.908;2022-11-13T11:09:45;8.00;99.90
20364;DHT22;10340;53.664;9.908;2022-11-13T11:12:14;8.00;99.90
20364;DHT22;10340;53.664;9.908;2022-11-13T11:14:51;8.10;99.90
20364;DHT22;10340;53.664;9.908;2022-11-13T11:17:22;8.10;99.90
20364;DHT22;10340;53.664;9.908;2022-11-13T11:19:56;8.10;99.90
20364;DHT22;10340;53.664;9.908;2022-11-13T11:22:28;8.10;99.90
20364;DHT22;10340;53.664;9.908;2022-11-13T11:25:03;8.10;99.90
20364;DHT22;10340;53.664;9.908;2022-11-13T11:27:34;8.20;99.90
20364;DHT22;10340;53.664;9.908;2022-11-13T11:30:05;8.20;99.90
20364;DHT22;10340;53.664;9.908;2022-11-13T11:32:41;8.20;99.90
20364;DHT22;10340;53.664;9.908;2022-11-13T11:35:15;8.30;99.90
20364;DHT22;10340;53.664;9.908;2022-11-13T11:37:50;8.30;99.90
20364;DHT22;10340;53.664;9.908;2022-11-13T11:40:24;8.30;99.90
20364;DHT22;10340;53.664;9.908;2022-11-13T11:43:00;8.40;99.90
20364;DHT22;10340;53.664;9.908;2022-11-13T11:45:32;8.40;99.90
20364;DHT22;10340;53.664;9.908;2022-11-13T11:48:01;8.40;99.90
20364;DHT22;10340;53.664;9.908;2022-11-13T11:50:36;8.40;99.90
20364;DHT22;10340;53.664;9.908;2022-11-13T11:53:10;8.40;99.90
20364;DHT22;10340;53.664;9.908;2022-11-13T11:55:58;8.50;99.90
20364;DHT22;10340;53.664;9.908;2022-11-13T12:01:55;8.50;99.90
20364;DHT22;10340;53.664;9.908;2022-11-13T12:04:42;8.50;99.90
20364;DHT22;10340;53.664;9.908;2022-11-13T12:07:24;8.50;99.90
20364;DHT22;10340;53.664;9.908;2022-11-13T12:09:57;8.50;99.90
20364;DHT22;10340;53.664;9.908;2022-11-13T12:12:40;8.50;99.90
20364;DHT22;10340;53.664;9.908;2022-11-13T12:15:12;8.50;99.90
20364;DHT22;10340;53.664;9.908;2022-11-13T12:17:48;8.60;99.90
20364;DHT22;10340;53.664;9.908;2022-11-13T12:20:26;8.60;99.90
20364;DHT22;10340;53.664;9.908;2022-11-13T12:23:02;8.60;99.90
20364;DHT22;10340;53.664;9.908;2022-11-13T12:25:35;8.60;99.90
20364;DHT22;10340;53.664;9.908;2022-11-13T12:28:16;8.60;99.90
20364;DHT22;10340;53.664;9.908;2022-11-13T12:30:52;8.60;99.90
20364;DHT22;10340;53.664;9.908;2022-11-13T12:33:32;8.60;99.90
20364;DHT22;10340;53.664;9.908;2022-11-13T12:36:02;8.70;99.90
20364;DHT22;10340;53.664;9.908;2022-11-13T12:38:35;8.90;99.90
20364;DHT22;10340;53.664;9.908;2022-11-13T12:41:13;8.80;99.90
20364;DHT22;10340;53.664;9.908;2022-11-13T12:46:39;8.90;99.90
20364;DHT22;10340;53.664;9.908;2022-11-13T12:49:28;8.90;99.90
20364;DHT22;10340;53.664;9.908;2022-11-13T12:51:59;8.80;99.90
20364;DHT22;10340;53.664;9.908;2022-11-13T12:54:28;8.80;99.90
20364;DHT22;10340;53.664;9.908;2022-11-13T12:57:06;8.80;99.90
20364;DHT22;10340;53.664;9.908;2022-11-13T12:59:35;8.90;99.90
20364;DHT22;10340;53.664;9.908;2022-11-13T13:02:29;8.90;99.90
20364;DHT22;10340;53.664;9.908;2022-11-13T13:05:20;8.90;99.90
20364;DHT22;10340;53.664;9.908;2022-11-13T13:08:19;9.00;99.90
20364;DHT22;10340;53.664;9.908;2022-11-13T13:11:01;8.90;99.90
20364;DHT22;10340;53.664;9.908;2022-11-13T13:13:36;9.00;99.90
20364;DHT22;10340;53.664;9.908;2022-11-13T13:16:06;9.00;99.90
20364;DHT22;10340;53.664;9.908;2022-11-13T13:18:36;9.00;99.90
20364;DHT22;10340;53.664;9.908;2022-11-13T13:21:06;9.00;99.90
20364;DHT22;10340;53.664;9.908;2022-11-13T13:23:35;9.00;99.90
20364;DHT22;10340;53.664;9.908;2022-11-13T13:26:04;8.90;99.90
20364;DHT22;10340;53.664;9.908;2022-11-13T13:28:32;8.90;99.90
20364;DHT22;10340;53.664;9.908;2022-11-13T13:31:12;8.90;99.90
20364;DHT22;10340;53.664;9.908;2022-11-13T13:33:50;8.90;99.90
20364;DHT22;10340;53.664;9.908;2022-11-13T13:36:29;8.90;99.90
20364;DHT22;10340;53.664;9.908;2022-11-13T13:39:03;8.90;99.90
20364;DHT22;10340;53.664;9.908;2022-11-13T13:41:43;8.90;99.90
20364;DHT22;10340;53.664;9.908;2022-11-13T13:47:02;8.90;99.90
20364;DHT22;10340;53.664;9.908;2022-11-13T13:49:33;8.90;99.90
20364;DHT22;10340;53.664;9.908;2022-11-13T13:52:00;8.90;99.90
20364;DHT22;10340;53.664;9.908;2022-11-13T13:54:31;8.90;99.90
20364;DHT22;10340;53.664;9.908;2022-11-13T13:57:00;8.90;99.90
20364;DHT22;10340;53.664;9.908;2022-11-13T13:59:31;8.90;99.90
20364;DHT22;10340;53.664;9.908;2022-11-13T14:02:00;8.80;99.90
20364;DHT22;10340;53.664;9.908;2022-11-13T14:04:28;8.80;99.90
20364;DHT22;10340;53.664;9.908;2022-11-13T14:07:02;8.80;99.90
20364;DHT22;10340;53.664;9.908;2022-11-13T14:09:29;8.80;99.90
20364;DHT22;10340;53.664;9.908;2022-11-13T14:11:58;8.80;99.90
20364;DHT22;10340;53.664;9.908;2022-11-13T14:14:25;8.80;99.90
20364;DHT22;10340;53.664;9.908;2022-11-13T14:16:56;8.80;99.90
20364;DHT22;10340;53.664;9.908;2022-11-13T14:19:23;8.80;99.90
20364;DHT22;10340;53.664;9.908;2022-11-13T14:21:52;8.80;99.90
20364;DHT22;10340;53.664;9.908;2022-11-13T14:24:24;8.80;99.90
20364;DHT22;10340;53.664;9.908;2022-11-13T14:26:54;8.90;99.90
20364;DHT22;10340;53.664;9.908;2022-11-13T14:29:29;8.90;99.90
20364;DHT22;10340;53.664;9.908;2022-11-13T14:32:05;8.90;99.90
20364;DHT22;10340;53.664;9.908;2022-11-13T14:34:33;8.90;99.90
20364;DHT22;10340;53.664;9.908;2022-11-13T14:37:17;8.90;99.90
20364;DHT22;10340;53.664;9.908;2022-11-13T14:39:48;8.80;99.90
20364;DHT22;10340;53.664;9.908;2022-11-13T14:42:17;8.80;99.90
20364;DHT22;10340;53.664;9.908;2022-11-13T14:44:45;8.80;99.90
20364;DHT22;10340;53.664;9.908;2022-11-13T14:47:26;8.80;99.90
20364;DHT22;10340;53.664;9.908;2022-11-13T14:49:54;8.90;99.90
20364;DHT22;10340;53.664;9.908;2022-11-13T14:52:23;8.90;99.90
20364;DHT22;10340;53.664;9.908;2022-11-13T14:55:02;8.80;99.90
20364;DHT22;10340;53.664;9.908;2022-11-13T14:57:30;8.80;99.90
20364;DHT22;10340;53.664;9.908;2022-11-13T15:00:07;8.80;99.90
20364;DHT22;10340;53.664;9.908;2022-11-13T15:02:34;8.70;99.90
20364;DHT22;10340;53.664;9.908;2022-11-13T15:05:01;8.80;99.90
20364;DHT22;10340;53.664;9.908;2022-11-13T15:07:29;8.70;99.90
20364;DHT22;10340;53.664;9.908;2022-11-13T15:09:59;8.80;99.90
20364;DHT22;10340;53.664;9.908;2022-11-13T15:12:27;8.70;99.90
20364;DHT22;10340;53.664;9.908;2022-11-13T15:14:56;8.70;99.90
20364;DHT22;10340;53.664;9.908;2022-11-13T15:17:23;8.70;99.90
20364;DHT22;10340;53.664;9.908;2022-11-13T15:19:52;8.70;99.90
20364;DHT22;10340;53.664;9.908;2022-11-13T15:22:20;8.70;99.90
20364;DHT22;10340;53.664;9.908;2022-11-13T15:24:47;8.70;99.90
20364;DHT22;10340;53.664;9.908;2022-11-13T15:27:16;8.80;99.90
20364;DHT22;10340;53.664;9.908;2022-11-13T15:29:43;8.80;99.90
20364;DHT22;10340;53.664;9.908;2022-11-13T15:32:11;8.80;99.90
20364;DHT22;10340;53.664;9.908;2022-11-13T15:34:38;8.80;99.90
20364;DHT22;10340;53.664;9.908;2022-11-13T15:37:10;8.80;99.90
20364;DHT22;10340;53.664;9.908;2022-11-13T15:39:38;8.80;99.90
20364;DHT22;10340;53.664;9.908;2022-11-13T15:42:10;8.80;99.90
20364;DHT22;10340;53.664;9.908;2022-11-13T15:44:39;8.80;99.90
20364;DHT22;10340;53.664;9.908;2022-11-13T15:47:18;8.80;99.90
20364;DHT22;10340;53.664;9.908;2022-11-13T15:49:47;8.70;99.90
20364;DHT22;10340;53.664;9.908;2022-11-13T15:52:14;8.80;99.90
20364;DHT22;10340;53.664;9.908;2022-11-13T15:54:41;8.70;99.90
20364;DHT22;10340;53.664;9.908;2022-11-13T15:57:15;8.70;99.90
20364;DHT22;10340;53.664;9.908;2022-11-13T15:59:44;8.80;99.90
20364;DHT22;10340;53.664;9.908;2022-11-13T16:02:11;8.80;99.90
20364;DHT22;10340;53.664;9.908;2022-11-13T16:04:38;8.80;99.90
20364;DHT22;10340;53.664;9.908;2022-11-13T16:07:11;8.80;99.90
20364;DHT22;10340;53.664;9.908;2022-11-13T16:09:39;8.90;99.90
20364;DHT22;10340;53.664;9.908;2022-11-13T16:12:08;8.80;99.90
20364;DHT22;10340;53.664;9.908;2022-11-13T16:17:14;8.80;99.90
20364;DHT22;10340;53.664;9.908;2022-11-13T16:19:45;8.80;99.90
20364;DHT22;10340;53.664;9.908;2022-11-13T16:22:18;8.80;99.90